createdAt,value
2022-09-16T00:00:43.581Z,3.97
2022-09-16T00:03:13.344Z,4.90
2022-09-16T00:05:44.460Z,4.63
2022-09-16T00:08:13.303Z,5.10
2022-09-16T00:10:41.187Z,4.87
2022-09-16T00:13:09.542Z,4.20
2022-09-16T00:15:37.358Z,3.27
2022-09-16T00:18:05.558Z,3.73
2022-09-16T00:20:34.506Z,4.00
2022-09-16T00:23:02.485Z,4.17
2022-09-16T00:25:30.175Z,4.67
2022-09-16T00:27:58.283Z,5.33
2022-09-16T00:30:25.974Z,4.63
2022-09-16T00:32:54.194Z,4.57
2022-09-16T00:35:22.846Z,3.97
2022-09-16T00:37:52.309Z,3.43
2022-09-16T00:40:20.231Z,3.77
2022-09-16T00:42:48.264Z,4.33
2022-09-16T00:45:19.019Z,5.23
2022-09-16T00:47:51.783Z,4.97
2022-09-16T00:50:23.526Z,4.80
2022-09-16T00:52:54.835Z,5.60
2022-09-16T00:55:27.311Z,3.57
2022-09-16T00:57:58.263Z,3.63
2022-09-16T01:00:26.200Z,4.23
2022-09-16T01:02:54.436Z,4.70
2022-09-16T01:05:25.815Z,5.53
2022-09-16T01:07:56.039Z,5.40
2022-09-16T01:10:25.555Z,6.13
2022-09-16T01:12:58.134Z,5.37
2022-09-16T01:15:32.468Z,5.33
2022-09-16T01:18:12.936Z,5.17
2022-09-16T01:21:10.394Z,6.07
2022-09-16T01:24:05.526Z,5.53
2022-09-16T01:27:22.465Z,5.33
2022-09-16T01:30:08.475Z,6.67
2022-09-16T01:32:49.406Z,5.30
2022-09-16T01:35:26.818Z,4.77
2022-09-16T01:38:05.400Z,4.80
2022-09-16T01:40:40.437Z,6.07
2022-09-16T01:43:20.174Z,5.50
2022-09-16T01:45:54.791Z,6.00
2022-09-16T01:48:27.575Z,5.57
2022-09-16T01:51:03.471Z,5.43
2022-09-16T01:53:35.934Z,5.77
2022-09-16T01:56:10.298Z,6.17
2022-09-16T01:58:43.004Z,5.23
2022-09-16T02:01:15.994Z,5.07
2022-09-16T02:03:52.899Z,5.10
2022-09-16T02:06:25.075Z,4.63
2022-09-16T02:08:57.001Z,5.20
2022-09-16T02:11:26.218Z,5.33
2022-09-16T02:13:58.906Z,5.27
2022-09-16T02:16:35.282Z,4.57
2022-09-16T02:19:10.795Z,3.53
2022-09-16T02:21:45.872Z,4.37
2022-09-16T02:24:18.375Z,4.50
2022-09-16T02:26:51.548Z,3.30
2022-09-16T02:29:23.402Z,3.77
2022-09-16T02:31:56.088Z,3.47
2022-09-16T02:34:31.492Z,4.77
2022-09-16T02:37:06.715Z,3.90
2022-09-16T02:39:39.833Z,3.87
2022-09-16T02:42:08.766Z,4.03
2022-09-16T02:44:36.558Z,3.30
2022-09-16T02:47:13.323Z,2.93
2022-09-16T02:49:54.548Z,4.10
2022-09-16T02:52:31.618Z,3.90
2022-09-16T02:55:06.804Z,4.03
2022-09-16T02:57:34.702Z,4.43
2022-09-16T03:00:03.415Z,3.27
2022-09-16T03:02:33.701Z,4.33
2022-09-16T03:05:03.650Z,4.63
2022-09-16T03:07:31.883Z,4.63
2022-09-16T03:09:59.774Z,6.67
2022-09-16T03:12:46.313Z,5.30
2022-09-16T03:15:34.498Z,4.57
2022-09-16T03:18:18.617Z,6.20
2022-09-16T03:20:56.056Z,4.00
2022-09-16T03:23:35.535Z,4.70
2022-09-16T03:26:12.913Z,4.97
2022-09-16T03:28:48.602Z,5.97
2022-09-16T03:31:22.195Z,4.30
2022-09-16T03:33:54.334Z,4.13
2022-09-16T03:36:30.761Z,4.83
2022-09-16T03:39:01.462Z,4.40
2022-09-16T03:41:30.579Z,5.00
2022-09-16T03:44:03.702Z,4.93
2022-09-16T03:46:33.260Z,4.47
2022-09-16T03:49:00.923Z,4.67
2022-09-16T03:51:30.682Z,5.53
2022-09-16T03:53:58.331Z,5.70
2022-09-16T03:56:27.113Z,6.07
2022-09-16T03:58:54.742Z,6.77
2022-09-16T04:01:23.135Z,5.80
2022-09-16T04:03:52.301Z,5.63
2022-09-16T04:06:20.380Z,5.10
2022-09-16T04:08:50.589Z,6.00
2022-09-16T04:11:18.960Z,5.90
2022-09-16T04:13:46.588Z,8.23
2022-09-16T04:16:20.516Z,5.33
2022-09-16T04:18:48.894Z,6.13
2022-09-16T04:21:16.730Z,5.87
2022-09-16T04:23:44.442Z,6.03
2022-09-16T04:26:13.483Z,5.57
2022-09-16T04:28:41.383Z,5.70
2022-09-16T04:31:12.417Z,5.43
2022-09-16T04:33:40.343Z,3.77
2022-09-16T04:36:10.050Z,3.97
2022-09-16T04:38:38.479Z,3.60
2022-09-16T04:41:08.496Z,4.63
2022-09-16T04:43:37.851Z,4.67
2022-09-16T04:46:06.869Z,4.07
2022-09-16T04:48:35.771Z,6.37
2022-09-16T04:51:04.890Z,6.23
2022-09-16T04:53:33.158Z,5.77
2022-09-16T04:56:06.049Z,5.87
2022-09-16T04:58:34.098Z,7.90
2022-09-16T05:01:07.608Z,4.83
2022-09-16T05:03:35.398Z,5.53
2022-09-16T05:06:08.280Z,6.07
2022-09-16T05:08:36.970Z,6.30
2022-09-16T05:11:07.568Z,5.80
2022-09-16T05:13:35.625Z,5.57
2022-09-16T05:16:09.922Z,4.87
2022-09-16T05:18:39.065Z,5.23
2022-09-16T05:21:09.490Z,6.57
2022-09-16T05:23:37.913Z,5.57
2022-09-16T05:26:07.732Z,5.73
2022-09-16T05:28:36.819Z,6.17
2022-09-16T05:31:17.344Z,6.53
2022-09-16T05:33:47.703Z,6.60
2022-09-16T05:36:18.436Z,6.80
2022-09-16T05:39:04.599Z,6.83
2022-09-16T05:41:34.661Z,6.60
2022-09-16T05:44:02.869Z,6.57
2022-09-16T05:46:32.134Z,6.30
2022-09-16T05:49:00.095Z,6.20
2022-09-16T05:51:27.875Z,7.90
2022-09-16T05:53:56.931Z,6.63
2022-09-16T05:56:26.399Z,6.17
2022-09-16T05:58:55.218Z,6.37
2022-09-16T06:01:25.138Z,5.83
2022-09-16T06:03:54.998Z,6.33
2022-09-16T06:06:25.851Z,6.53
2022-09-16T06:08:54.600Z,6.10
2022-09-16T06:11:23.287Z,6.80
2022-09-16T06:13:55.576Z,5.50
2022-09-16T06:16:26.142Z,6.80
2022-09-16T06:18:56.161Z,5.30
2022-09-16T06:21:24.866Z,4.53
2022-09-16T06:23:53.235Z,4.57
2022-09-16T06:26:23.035Z,5.17
2022-09-16T06:28:51.604Z,4.90
2022-09-16T06:31:21.466Z,4.80
2022-09-16T06:33:50.279Z,4.17
2022-09-16T06:36:21.788Z,3.47
2022-09-16T06:38:51.172Z,4.90
2022-09-16T06:41:21.399Z,5.80
2022-09-16T06:43:51.150Z,5.13
2022-09-16T06:46:21.033Z,6.37
2022-09-16T06:48:51.167Z,5.37
2022-09-16T06:51:23.098Z,6.13
2022-09-16T06:53:52.467Z,4.97
2022-09-16T06:56:22.105Z,4.47
2022-09-16T06:58:55.578Z,5.27
2022-09-16T07:01:26.111Z,3.73
2022-09-16T07:03:54.554Z,4.00
2022-09-16T07:06:38.413Z,4.73
2022-09-16T07:09:12.964Z,4.83
2022-09-16T07:11:42.026Z,4.57
2022-09-16T07:14:10.349Z,6.17
2022-09-16T07:16:38.573Z,4.57
2022-09-16T07:19:06.453Z,5.23
2022-09-16T07:21:36.168Z,5.73
2022-09-16T07:24:04.639Z,5.43
2022-09-16T07:26:35.319Z,6.20
2022-09-16T07:29:05.387Z,5.47
2022-09-16T07:31:35.598Z,5.30
2022-09-16T07:34:04.783Z,5.53
2022-09-16T07:36:36.383Z,6.43
2022-09-16T07:39:04.858Z,7.47
2022-09-16T07:41:35.344Z,6.70
2022-09-16T07:44:04.822Z,6.80
2022-09-16T07:46:35.392Z,5.90
2022-09-16T07:49:04.739Z,5.70
2022-09-16T07:51:33.130Z,5.57
2022-09-16T07:54:05.292Z,5.60
2022-09-16T07:56:36.116Z,5.23
2022-09-16T07:59:06.697Z,6.73
2022-09-16T08:01:37.051Z,5.57
2022-09-16T08:04:07.729Z,8.03
2022-09-16T08:06:39.352Z,6.23
2022-09-16T08:09:36.730Z,6.50
2022-09-16T08:11:56.572Z,7.57
2022-09-16T08:14:24.344Z,5.57
2022-09-16T08:16:52.216Z,5.23
2022-09-16T08:19:20.386Z,4.80
2022-09-16T08:21:48.356Z,5.77
2022-09-16T08:24:17.411Z,4.57
2022-09-16T08:26:45.069Z,6.33
2022-09-16T08:29:12.884Z,5.50
2022-09-16T08:31:41.542Z,5.47
2022-09-16T08:34:09.203Z,5.70
2022-09-16T08:36:37.112Z,7.37
2022-09-16T08:39:04.976Z,5.93
2022-09-16T08:41:48.880Z,5.80
2022-09-16T08:44:24.355Z,5.87
2022-09-16T08:46:55.420Z,6.53
2022-09-16T08:49:30.949Z,5.37
2022-09-16T08:52:00.942Z,6.03
2022-09-16T08:54:33.453Z,6.90
2022-09-16T08:57:06.359Z,6.17
2022-09-16T08:59:40.539Z,6.87
2022-09-16T09:02:29.321Z,5.00
2022-09-16T09:04:58.674Z,6.47
2022-09-16T09:07:34.531Z,6.23
2022-09-16T09:10:12.835Z,5.03
2022-09-16T09:12:48.490Z,5.77
2022-09-16T09:15:37.567Z,6.57
2022-09-16T09:18:31.334Z,6.90
2022-09-16T09:21:15.573Z,5.57
2022-09-16T09:23:58.851Z,4.83
2022-09-16T09:26:33.753Z,6.77
2022-09-16T09:29:18.871Z,7.20
2022-09-16T09:31:58.831Z,6.87
2022-09-16T09:34:41.609Z,7.50
2022-09-16T09:37:22.079Z,6.53
2022-09-16T09:39:59.721Z,5.77
2022-09-16T09:42:32.826Z,4.87
2022-09-16T09:45:05.285Z,6.63
2022-09-16T09:47:38.398Z,5.90
2022-09-16T09:50:18.540Z,7.80
2022-09-16T09:52:52.400Z,5.20
2022-09-16T09:55:22.424Z,4.83
2022-09-16T09:58:07.082Z,3.90
2022-09-16T10:00:36.427Z,2.97
2022-09-16T10:03:07.809Z,3.90
2022-09-16T10:05:36.066Z,2.93
2022-09-16T10:08:10.849Z,2.73
2022-09-16T10:10:49.837Z,2.23
2022-09-16T10:13:17.944Z,2.73
2022-09-16T10:15:51.931Z,2.67
2022-09-16T10:18:26.930Z,3.00
2022-09-16T10:21:04.563Z,2.97
2022-09-16T10:23:32.949Z,2.50
2022-09-16T10:26:17.856Z,3.40
2022-09-16T10:28:58.637Z,3.33
2022-09-16T10:31:34.241Z,2.90
2022-09-16T10:34:05.384Z,2.83
2022-09-16T10:36:35.711Z,2.30
2022-09-16T10:39:05.790Z,2.63
2022-09-16T10:41:36.512Z,3.47
2022-09-16T10:44:08.167Z,2.17
2022-09-16T10:46:38.274Z,2.90
2022-09-16T10:49:12.682Z,2.37
2022-09-16T10:51:40.964Z,2.87
2022-09-16T10:54:25.381Z,2.10
2022-09-16T10:56:53.094Z,3.13
2022-09-16T10:59:20.714Z,1.17
2022-09-16T11:02:01.077Z,3.97
2022-09-16T11:04:51.036Z,1.70
2022-09-16T11:07:33.078Z,1.97
2022-09-16T11:10:10.917Z,2.67
2022-09-16T11:12:55.922Z,2.97
2022-09-16T11:15:39.360Z,2.50
2022-09-16T11:18:27.019Z,2.17
2022-09-16T11:21:08.111Z,2.90
2022-09-16T11:23:57.743Z,2.07
2022-09-16T11:26:32.587Z,1.80
2022-09-16T11:29:13.647Z,1.60
2022-09-16T11:31:50.587Z,1.93
2022-09-16T11:34:34.100Z,2.13
2022-09-16T11:37:14.044Z,1.97
2022-09-16T11:39:59.166Z,1.60
2022-09-16T11:42:34.730Z,2.37
2022-09-16T11:45:16.168Z,1.60
2022-09-16T11:47:54.899Z,3.60
2022-09-16T11:50:36.107Z,1.70
2022-09-16T11:53:30.843Z,2.50
2022-09-16T11:56:04.466Z,2.37
2022-09-16T11:58:38.573Z,1.67
2022-09-16T12:03:57.513Z,0.93
2022-09-16T12:06:31.486Z,0.60
2022-09-16T12:09:04.692Z,0.97
2022-09-16T12:11:38.349Z,0.97
2022-09-16T12:14:11.835Z,1.53
2022-09-16T12:16:44.765Z,0.73
2022-09-16T12:19:18.952Z,1.07
2022-09-16T12:21:57.794Z,0.50
2022-09-16T12:24:32.290Z,1.30
2022-09-16T12:27:07.926Z,0.77
2022-09-16T12:29:45.126Z,0.97
2022-09-16T12:32:16.898Z,1.40
2022-09-16T12:34:50.278Z,1.00
2022-09-16T12:37:30.344Z,1.00
2022-09-16T12:39:58.102Z,0.97
2022-09-16T12:42:52.642Z,0.90
2022-09-16T12:45:35.644Z,1.10
2022-09-16T12:48:21.502Z,0.90
2022-09-16T12:51:11.686Z,1.20
2022-09-16T12:54:06.727Z,1.03
2022-09-16T12:56:55.543Z,0.77
2022-09-16T12:59:53.138Z,0.77
2022-09-16T13:02:25.438Z,0.83
2022-09-16T13:04:57.260Z,1.07
2022-09-16T13:07:28.583Z,0.97
2022-09-16T13:10:07.238Z,1.37
2022-09-16T13:12:43.254Z,1.73
2022-09-16T13:15:25.512Z,1.30
2022-09-16T13:17:53.840Z,0.87
2022-09-16T13:20:28.242Z,1.27
2022-09-16T13:23:07.441Z,1.47
2022-09-16T13:25:47.536Z,1.20
2022-09-16T13:28:28.144Z,1.47
2022-09-16T13:30:56.141Z,0.93
2022-09-16T13:33:28.937Z,1.23
2022-09-16T13:36:16.950Z,1.63
2022-09-16T13:38:46.923Z,1.50
2022-09-16T13:41:29.205Z,1.90
2022-09-16T13:43:57.256Z,1.03
2022-09-16T13:46:37.193Z,1.43
2022-09-16T13:49:17.603Z,2.03
2022-09-16T13:51:47.692Z,1.33
2022-09-16T13:54:22.812Z,1.57
2022-09-16T13:57:26.397Z,1.50
2022-09-16T14:00:06.160Z,1.20
2022-09-16T14:02:49.297Z,2.20
2022-09-16T14:05:44.843Z,1.20
2022-09-16T14:08:20.730Z,1.43
2022-09-16T14:10:57.908Z,2.93
2022-09-16T14:13:26.566Z,1.73
2022-09-16T14:15:59.303Z,3.07
2022-09-16T14:18:31.310Z,2.43
2022-09-16T14:21:02.743Z,4.93
2022-09-16T14:23:32.815Z,2.13
2022-09-16T14:26:11.221Z,2.77
2022-09-16T14:28:39.573Z,3.20
2022-09-16T14:31:11.755Z,2.83
2022-09-16T14:33:43.560Z,2.83
2022-09-16T14:36:15.850Z,2.60
2022-09-16T14:38:46.933Z,2.77
2022-09-16T14:41:25.108Z,3.00
2022-09-16T14:43:55.215Z,3.23
2022-09-16T14:46:25.020Z,2.17
2022-09-16T14:48:52.771Z,2.80
2022-09-16T14:51:24.618Z,2.27
2022-09-16T14:54:13.748Z,2.40
2022-09-16T14:56:42.131Z,2.53
2022-09-16T14:59:13.901Z,3.23
2022-09-16T15:01:43.646Z,2.57
2022-09-16T15:04:19.069Z,3.37
2022-09-16T15:06:55.164Z,2.77
2022-09-16T15:09:32.491Z,3.07
2022-09-16T15:12:02.319Z,3.67
2022-09-16T15:14:30.340Z,4.00
2022-09-16T15:17:02.770Z,3.13
2022-09-16T15:19:34.926Z,3.70
2022-09-16T15:22:03.774Z,3.37
2022-09-16T15:24:34.641Z,3.93
2022-09-16T15:27:03.337Z,3.53
2022-09-16T15:29:33.884Z,3.20
2022-09-16T15:32:18.395Z,3.03
2022-09-16T15:34:46.378Z,3.77
2022-09-16T15:37:31.882Z,2.77
2022-09-16T15:40:20.644Z,2.90
2022-09-16T15:42:50.161Z,2.77
2022-09-16T15:45:20.614Z,2.60
2022-09-16T15:47:59.050Z,2.70
2022-09-16T15:50:29.294Z,2.80
2022-09-16T15:53:01.403Z,1.80
2022-09-16T15:55:36.949Z,2.00
2022-09-16T15:58:10.436Z,3.20
2022-09-16T16:01:02.589Z,3.80
2022-09-16T16:03:38.734Z,3.30
2022-09-16T16:06:06.936Z,2.87
2022-09-16T16:08:40.346Z,3.10
2022-09-16T16:11:10.386Z,2.80
2022-09-16T16:13:38.847Z,4.07
2022-09-16T16:16:08.722Z,2.47
2022-09-16T16:18:39.599Z,3.80
2022-09-16T16:21:09.512Z,3.73
2022-09-16T16:23:37.714Z,2.80
2022-09-16T16:26:06.849Z,3.00
2022-09-16T16:28:35.212Z,3.53
2022-09-16T16:31:15.177Z,4.63
2022-09-16T16:33:46.167Z,2.97
2022-09-16T16:36:14.998Z,3.67
2022-09-16T16:38:43.575Z,3.70
2022-09-16T16:41:12.400Z,4.13
2022-09-16T16:43:40.918Z,3.83
2022-09-16T16:46:09.181Z,4.23
2022-09-16T16:48:37.098Z,3.23
2022-09-16T16:51:08.794Z,3.17
2022-09-16T16:53:36.687Z,3.60
2022-09-16T16:56:07.845Z,3.60
2022-09-16T16:58:39.498Z,4.00
2022-09-16T17:01:09.726Z,3.20
2022-09-16T17:03:37.409Z,3.53
2022-09-16T17:06:07.688Z,3.60
2022-09-16T17:08:35.883Z,3.60
2022-09-16T17:11:08.406Z,3.30
2022-09-16T17:13:36.092Z,4.20
2022-09-16T17:16:04.596Z,4.43
2022-09-16T17:18:34.416Z,5.60
2022-09-16T17:21:04.879Z,3.93
2022-09-16T17:23:34.186Z,3.67
2022-09-16T17:26:02.555Z,3.77
2022-09-16T17:28:31.286Z,5.20
2022-09-16T17:30:59.137Z,4.10
2022-09-16T17:33:27.144Z,4.90
2022-09-16T17:36:02.854Z,5.23
2022-09-16T17:38:30.668Z,5.23
2022-09-16T17:41:05.250Z,5.07
2022-09-16T17:43:33.451Z,4.40
2022-09-16T17:46:02.593Z,4.73
2022-09-16T17:48:30.710Z,5.17
2022-09-16T17:50:59.163Z,4.83
2022-09-16T17:53:27.213Z,5.00
2022-09-16T17:56:05.170Z,4.67
2022-09-16T17:58:33.421Z,5.03
2022-09-16T18:01:09.786Z,4.30
2022-09-16T18:03:38.621Z,5.47
2022-09-16T18:06:09.645Z,4.97
2022-09-16T18:08:37.880Z,3.87
2022-09-16T18:11:08.404Z,4.87
2022-09-16T18:13:36.655Z,4.23
2022-09-16T18:16:06.159Z,5.17
2022-09-16T18:18:33.963Z,4.57
2022-09-16T18:21:01.908Z,5.03
2022-09-16T18:23:29.627Z,5.20
2022-09-16T18:25:57.361Z,3.07
2022-09-16T18:28:27.071Z,4.10
2022-09-16T18:31:05.457Z,2.83
2022-09-16T18:33:33.998Z,3.20
2022-09-16T18:36:03.877Z,2.83
2022-09-16T18:38:33.366Z,3.17
2022-09-16T18:41:06.397Z,4.50
2022-09-16T18:43:35.438Z,3.27
2022-09-16T18:46:11.748Z,3.30
2022-09-16T18:48:40.416Z,2.27
2022-09-16T18:51:18.507Z,2.13
2022-09-16T18:53:46.999Z,2.67
2022-09-16T18:56:17.600Z,2.23
2022-09-16T18:59:03.580Z,2.43
2022-09-16T19:01:36.421Z,2.37
2022-09-16T19:04:07.212Z,2.13
2022-09-16T19:06:37.515Z,2.77
2022-09-16T19:09:07.616Z,2.30
2022-09-16T19:11:36.927Z,2.20
2022-09-16T19:14:09.299Z,1.50
2022-09-16T19:16:40.365Z,1.70
2022-09-16T19:19:09.563Z,1.87
2022-09-16T19:21:38.095Z,2.13
2022-09-16T19:24:08.183Z,1.83
2022-09-16T19:26:38.099Z,2.40
2022-09-16T19:29:08.447Z,3.17
2022-09-16T19:31:38.899Z,2.50
2022-09-16T19:34:06.901Z,3.37
2022-09-16T19:36:36.189Z,2.50
2022-09-16T19:39:05.267Z,2.90
2022-09-16T19:41:36.067Z,3.77
2022-09-16T19:44:06.288Z,3.23
2022-09-16T19:46:37.940Z,2.93
2022-09-16T19:49:07.409Z,3.03
2022-09-16T19:51:35.678Z,4.03
2022-09-16T19:54:03.385Z,2.93
2022-09-16T19:56:33.340Z,3.43
2022-09-16T19:59:01.419Z,3.97
2022-09-16T20:01:31.585Z,3.77
2022-09-16T20:04:01.472Z,3.60
2022-09-16T20:06:32.507Z,5.33
2022-09-16T20:09:01.755Z,3.43
2022-09-16T20:11:31.706Z,3.57
2022-09-16T20:14:01.412Z,4.40
2022-09-16T20:16:34.488Z,3.30
2022-09-16T20:19:04.672Z,3.60
2022-09-16T20:21:35.324Z,4.10
2022-09-16T20:24:05.546Z,3.77
2022-09-16T20:26:34.407Z,3.33
2022-09-16T20:29:02.459Z,4.10
2022-09-16T20:31:33.414Z,3.27
2022-09-16T20:34:01.233Z,3.43
2022-09-16T20:36:32.181Z,4.17
2022-09-16T20:39:00.827Z,3.63
2022-09-16T20:41:31.026Z,3.83
2022-09-16T20:44:00.115Z,3.10
2022-09-16T20:46:29.862Z,3.13
2022-09-16T20:48:59.418Z,3.17
2022-09-16T20:51:29.321Z,1.97
2022-09-16T20:54:02.640Z,2.23
2022-09-16T20:56:37.946Z,3.33
2022-09-16T20:59:07.793Z,3.30
2022-09-16T21:01:36.995Z,2.50
2022-09-16T21:04:06.863Z,2.70
2022-09-16T21:06:35.959Z,4.20
2022-09-16T21:09:08.760Z,3.63
2022-09-16T21:11:37.326Z,4.00
2022-09-16T21:14:07.906Z,3.53
2022-09-16T21:16:37.969Z,4.67
2022-09-16T21:19:09.238Z,4.43
2022-09-16T21:21:39.375Z,3.83
2022-09-16T21:24:09.687Z,4.07
2022-09-16T21:26:39.148Z,3.80
2022-09-16T21:29:10.823Z,4.13
2022-09-16T21:31:41.072Z,3.67
2022-09-16T21:34:12.908Z,4.07
2022-09-16T21:36:41.220Z,3.83
2022-09-16T21:39:10.179Z,4.33
2022-09-16T21:41:38.632Z,3.13
2022-09-16T21:44:06.355Z,3.80
2022-09-16T21:46:37.248Z,4.17
2022-09-16T21:49:04.951Z,3.00
2022-09-16T21:51:37.327Z,3.57
2022-09-16T21:54:06.978Z,3.87
2022-09-16T21:56:38.445Z,3.20
2022-09-16T21:59:07.268Z,4.00
2022-09-16T22:01:36.428Z,3.33
2022-09-16T22:04:06.102Z,3.80
2022-09-16T22:06:34.992Z,2.40
2022-09-16T22:09:04.255Z,3.07
2022-09-16T22:11:33.447Z,2.27
2022-09-16T22:14:03.159Z,4.37
2022-09-16T22:16:32.960Z,2.90
2022-09-16T22:19:02.427Z,3.17
2022-09-16T22:21:32.191Z,3.30
2022-09-16T22:24:00.747Z,2.77
2022-09-16T22:26:30.170Z,2.23
2022-09-16T22:28:57.819Z,3.20
2022-09-16T22:31:28.593Z,3.20
2022-09-16T22:34:00.203Z,3.20
2022-09-16T22:36:31.721Z,2.23
2022-09-16T22:39:04.206Z,2.73
2022-09-16T22:41:33.516Z,2.37
2022-09-16T22:44:01.388Z,2.90
2022-09-16T22:46:31.996Z,3.33
2022-09-16T22:49:00.564Z,4.07
2022-09-16T22:51:29.624Z,1.77
2022-09-16T22:53:57.249Z,3.10
2022-09-16T22:56:29.931Z,2.40
2022-09-16T22:58:58.959Z,2.37
2022-09-16T23:01:28.565Z,2.40
2022-09-16T23:03:59.546Z,2.63
2022-09-16T23:06:30.135Z,2.67
2022-09-16T23:08:58.486Z,2.57
2022-09-16T23:11:29.936Z,2.80
2022-09-16T23:13:58.162Z,2.70
2022-09-16T23:16:27.894Z,2.00
2022-09-16T23:18:58.853Z,3.17
2022-09-16T23:21:27.616Z,2.70
2022-09-16T23:23:57.100Z,1.93
2022-09-16T23:26:27.189Z,2.00
2022-09-16T23:28:56.396Z,2.13
2022-09-16T23:31:26.301Z,3.23
2022-09-16T23:33:54.703Z,2.30
2022-09-16T23:36:25.740Z,2.20
2022-09-16T23:38:53.833Z,1.97
2022-09-16T23:41:23.611Z,2.03
2022-09-16T23:43:51.869Z,2.30
2022-09-16T23:46:21.594Z,2.10
2022-09-16T23:48:51.538Z,1.83
2022-09-16T23:51:25.841Z,1.37
2022-09-16T23:53:57.199Z,1.47
2022-09-16T23:56:25.476Z,1.57
2022-09-16T23:58:53.458Z,1.57
